createdAt,value
2018-10-21T00:01:26.697Z,32.50
2018-10-21T00:03:55.426Z,33.07
2018-10-21T00:06:25.161Z,33.93
2018-10-21T00:08:53.879Z,34.03
2018-10-21T00:11:22.659Z,32.53
2018-10-21T00:13:51.405Z,33.33
2018-10-21T00:16:20.182Z,32.70
2018-10-21T00:18:48.912Z,32.23
2018-10-21T00:21:17.723Z,33.33
2018-10-21T00:23:46.628Z,34.17
2018-10-21T00:26:15.360Z,31.57
2018-10-21T00:28:44.135Z,33.40
2018-10-21T00:31:12.834Z,33.53
2018-10-21T00:33:41.575Z,33.70
2018-10-21T00:36:10.350Z,32.83
2018-10-21T00:38:39.138Z,33.80
2018-10-21T00:41:07.839Z,31.87
2018-10-21T00:43:36.941Z,32.77
2018-10-21T00:46:06.221Z,31.33
2018-10-21T00:48:35.086Z,32.63
2018-10-21T00:51:03.993Z,32.63
2018-10-21T00:53:32.874Z,34.30
2018-10-21T00:56:01.671Z,31.50
2018-10-21T00:58:30.447Z,34.93
2018-10-21T01:00:59.197Z,33.93
2018-10-21T01:03:27.889Z,34.30
2018-10-21T01:05:56.710Z,33.20
2018-10-21T01:08:25.461Z,33.97
2018-10-21T01:11:00.640Z,33.03
2018-10-21T01:13:29.427Z,32.13
2018-10-21T01:15:58.214Z,32.23
2018-10-21T01:18:26.956Z,33.93
2018-10-21T01:20:55.731Z,33.43
2018-10-21T01:23:24.633Z,32.73
2018-10-21T01:25:53.378Z,32.40
2018-10-21T01:28:22.484Z,33.70
2018-10-21T01:30:51.222Z,34.20
2018-10-21T01:33:19.982Z,33.10
2018-10-21T01:35:48.725Z,44.10
2018-10-21T01:38:17.572Z,42.50
2018-10-21T01:40:47.565Z,33.73
2018-10-21T01:43:17.894Z,34.67
2018-10-21T01:45:46.632Z,35.20
2018-10-21T01:48:16.641Z,35.73
2018-10-21T01:50:45.404Z,33.60
2018-10-21T01:53:15.017Z,35.60
2018-10-21T01:55:43.771Z,34.43
2018-10-21T01:58:12.514Z,34.20
2018-10-21T02:00:41.814Z,37.00
2018-10-21T02:03:10.793Z,36.90
2018-10-21T02:05:40.389Z,37.87
2018-10-21T02:08:09.093Z,36.13
2018-10-21T02:10:37.854Z,34.40
2018-10-21T02:13:06.677Z,34.93
2018-10-21T02:15:35.661Z,37.63
2018-10-21T02:18:04.883Z,38.93
2018-10-21T02:20:33.598Z,37.70
2018-10-21T02:23:02.573Z,37.43
2018-10-21T02:25:31.328Z,36.90
2018-10-21T02:28:00.066Z,37.63
2018-10-21T02:30:29.811Z,37.30
2018-10-21T02:32:59.132Z,37.70
2018-10-21T02:35:28.090Z,37.67
2018-10-21T02:37:57.722Z,37.40
2018-10-21T02:41:39.309Z,36.93
2018-10-21T02:44:09.305Z,40.47
2018-10-21T02:46:38.972Z,36.83
2018-10-21T02:49:08.540Z,37.93
2018-10-21T02:51:37.300Z,40.77
2018-10-21T02:54:07.275Z,37.53
2018-10-21T02:56:36.092Z,39.60
2018-10-21T02:59:05.236Z,39.10
2018-10-21T03:01:34.014Z,37.17
2018-10-21T03:04:02.774Z,38.40
2018-10-21T03:06:31.650Z,38.13
2018-10-21T03:09:00.431Z,40.17
2018-10-21T03:11:29.209Z,42.63
2018-10-21T03:13:57.956Z,46.77
2018-10-21T03:16:26.703Z,48.37
2018-10-21T03:18:55.458Z,46.30
2018-10-21T03:21:24.202Z,39.30
2018-10-21T03:23:52.999Z,40.63
2018-10-21T03:26:21.818Z,40.37
2018-10-21T03:28:50.593Z,42.53
2018-10-21T03:31:19.332Z,40.50
2018-10-21T03:33:48.093Z,40.03
2018-10-21T03:36:17.032Z,40.63
2018-10-21T03:38:45.810Z,40.90
2018-10-21T03:41:14.570Z,40.30
2018-10-21T03:43:43.304Z,37.97
2018-10-21T03:46:13.528Z,38.93
2018-10-21T03:48:42.679Z,36.73
2018-10-21T03:51:11.762Z,38.13
2018-10-21T03:53:40.464Z,34.17
2018-10-21T03:56:09.210Z,35.23
2018-10-21T03:58:37.981Z,33.97
2018-10-21T04:01:07.369Z,37.53
2018-10-21T04:03:36.172Z,35.10
2018-10-21T04:06:04.970Z,34.10
2018-10-21T04:08:33.648Z,33.90
2018-10-21T04:11:02.399Z,34.80
2018-10-21T04:13:31.141Z,33.93
2018-10-21T04:15:59.909Z,34.47
2018-10-21T04:18:28.679Z,37.07
2018-10-21T04:20:57.397Z,35.67
2018-10-21T04:23:26.130Z,37.77
2018-10-21T04:25:54.903Z,36.50
2018-10-21T04:28:23.665Z,35.23
2018-10-21T04:30:52.476Z,35.03
2018-10-21T04:33:52.717Z,38.90
2018-10-21T04:36:26.315Z,38.30
2018-10-21T04:40:11.423Z,37.50
2018-10-21T04:42:40.335Z,36.93
2018-10-21T04:45:09.802Z,40.00
2018-10-21T04:47:38.521Z,39.10
2018-10-21T04:50:08.628Z,38.23
2018-10-21T04:52:37.321Z,37.47
2018-10-21T04:55:10.106Z,38.23
2018-10-21T04:57:40.116Z,41.03
2018-10-21T05:00:12.815Z,40.23
2018-10-21T05:02:41.593Z,41.13
2018-10-21T05:05:11.990Z,39.97
2018-10-21T05:07:41.220Z,38.70
2018-10-21T05:10:35.391Z,38.80
2018-10-21T05:13:05.167Z,36.33
2018-10-21T05:15:35.110Z,36.47
2018-10-21T05:18:04.110Z,35.83
2018-10-21T05:20:32.935Z,35.30
2018-10-21T05:23:01.643Z,32.57
2018-10-21T05:25:30.390Z,34.13
2018-10-21T05:27:59.196Z,34.90
2018-10-21T05:30:27.994Z,34.10
2018-10-21T05:32:56.737Z,34.03
2018-10-21T05:35:25.603Z,31.43
2018-10-21T05:37:54.336Z,29.10
2018-10-21T05:40:23.813Z,28.40
2018-10-21T05:42:52.949Z,29.97
2018-10-21T05:45:22.686Z,30.47
2018-10-21T05:47:51.919Z,30.20
2018-10-21T05:50:20.971Z,28.07
2018-10-21T05:52:49.766Z,29.20
2018-10-21T05:55:18.545Z,31.03
2018-10-21T05:57:51.468Z,48.90
2018-10-21T06:00:20.921Z,29.37
2018-10-21T06:02:49.784Z,31.73
2018-10-21T06:05:44.916Z,31.57
2018-10-21T06:08:13.768Z,32.60
2018-10-21T06:10:43.163Z,31.07
2018-10-21T06:13:12.258Z,31.10
2018-10-21T06:15:41.384Z,31.93
2018-10-21T06:18:19.110Z,30.73
2018-10-21T06:20:51.440Z,32.40
2018-10-21T06:23:20.351Z,30.23
2018-10-21T06:25:49.207Z,28.80
2018-10-21T06:28:18.072Z,28.20
2018-10-21T06:30:46.878Z,31.30
2018-10-21T06:33:15.793Z,32.43
2018-10-21T06:35:44.689Z,30.93
2018-10-21T06:38:13.596Z,29.93
2018-10-21T06:40:42.426Z,26.53
2018-10-21T06:43:11.161Z,29.40
2018-10-21T06:45:40.148Z,30.93
2018-10-21T06:48:09.081Z,32.53
2018-10-21T06:50:37.935Z,34.43
2018-10-21T06:53:06.806Z,34.03
2018-10-21T06:55:35.580Z,35.33
2018-10-21T06:58:04.353Z,35.37
2018-10-21T07:00:33.136Z,34.00
2018-10-21T07:03:01.917Z,35.20
2018-10-21T07:06:44.339Z,35.73
2018-10-21T07:09:13.071Z,35.40
2018-10-21T07:11:41.834Z,38.03
2018-10-21T07:14:10.609Z,36.23
2018-10-21T07:16:39.563Z,36.40
2018-10-21T07:19:08.379Z,37.60
2018-10-21T07:21:37.126Z,40.07
2018-10-21T07:24:06.181Z,39.70
2018-10-21T07:26:34.910Z,45.37
2018-10-21T07:29:03.653Z,43.53
2018-10-21T07:31:32.459Z,41.07
2018-10-21T07:34:01.274Z,43.77
2018-10-21T07:36:30.349Z,43.83
2018-10-21T07:38:59.380Z,51.43
2018-10-21T07:41:28.211Z,72.63
2018-10-21T07:43:56.988Z,57.60
2018-10-21T07:46:32.182Z,50.90
2018-10-21T07:49:01.015Z,49.03
2018-10-21T07:51:29.971Z,48.70
2018-10-21T07:53:58.829Z,49.30
2018-10-21T07:56:27.571Z,53.97
2018-10-21T07:58:56.279Z,58.97
2018-10-21T08:01:25.041Z,59.23
2018-10-21T08:03:53.990Z,63.43
2018-10-21T08:07:34.011Z,58.57
2018-10-21T08:10:02.909Z,55.53
2018-10-21T08:12:31.918Z,51.37
2018-10-21T08:15:00.779Z,52.07
2018-10-21T08:17:29.770Z,53.03
2018-10-21T08:19:58.566Z,52.33
2018-10-21T08:22:27.397Z,50.67
2018-10-21T08:24:56.172Z,50.47
2018-10-21T08:27:25.028Z,47.87
2018-10-21T08:29:53.834Z,49.40
2018-10-21T08:32:22.561Z,47.80
2018-10-21T08:34:51.440Z,49.97
2018-10-21T08:37:20.319Z,45.27
2018-10-21T08:39:49.069Z,47.80
2018-10-21T08:42:17.870Z,44.87
2018-10-21T08:44:46.685Z,47.63
2018-10-21T08:47:15.519Z,46.57
2018-10-21T08:49:44.326Z,48.43
2018-10-21T08:52:13.505Z,48.13
2018-10-21T08:54:42.501Z,45.00
2018-10-21T08:57:11.258Z,52.17
2018-10-21T08:59:40.029Z,48.87
2018-10-21T09:02:08.870Z,48.57
2018-10-21T09:04:37.825Z,49.30
2018-10-21T09:07:06.670Z,49.97
2018-10-21T09:09:35.652Z,44.17
2018-10-21T09:12:04.797Z,48.40
2018-10-21T09:14:33.651Z,47.27
2018-10-21T09:17:02.435Z,47.67
2018-10-21T09:19:31.206Z,46.87
2018-10-21T09:21:59.992Z,44.83
2018-10-21T09:24:28.747Z,47.47
2018-10-21T09:26:57.509Z,44.80
2018-10-21T09:29:26.299Z,45.80
2018-10-21T09:31:55.096Z,45.00
2018-10-21T09:34:23.868Z,44.73
2018-10-21T09:36:52.606Z,45.00
2018-10-21T09:39:21.859Z,45.87
2018-10-21T09:41:50.979Z,46.10
2018-10-21T09:44:19.812Z,44.23
2018-10-21T09:46:48.543Z,45.83
2018-10-21T09:49:17.442Z,44.70
2018-10-21T09:51:46.337Z,46.87
2018-10-21T09:54:15.144Z,43.83
2018-10-21T09:56:44.049Z,47.03
2018-10-21T09:59:12.863Z,43.60
2018-10-21T10:01:46.873Z,44.57
2018-10-21T10:04:15.723Z,44.57
2018-10-21T10:06:44.860Z,44.30
2018-10-21T10:09:14.412Z,45.63
2018-10-21T10:11:43.979Z,45.97
2018-10-21T10:14:12.711Z,44.93
2018-10-21T10:16:41.488Z,44.77
2018-10-21T10:19:10.381Z,42.37
2018-10-21T10:21:39.340Z,43.43
2018-10-21T10:24:08.092Z,38.53
2018-10-21T10:26:36.939Z,36.83
2018-10-21T10:29:05.972Z,35.03
2018-10-21T10:31:34.796Z,34.90
2018-10-21T10:34:03.706Z,33.93
2018-10-21T10:36:32.615Z,31.57
2018-10-21T10:39:01.481Z,30.23
2018-10-21T10:41:30.250Z,32.63
2018-10-21T10:43:59.067Z,31.03
2018-10-21T10:46:27.911Z,33.50
2018-10-21T10:48:56.745Z,33.07
2018-10-21T10:51:25.530Z,32.97
2018-10-21T10:53:55.997Z,33.47
2018-10-21T10:56:24.817Z,33.80
2018-10-21T10:58:53.634Z,35.20
2018-10-21T11:01:22.423Z,35.33
2018-10-21T11:03:51.178Z,33.73
2018-10-21T11:06:20.026Z,32.87
2018-10-21T11:08:48.969Z,32.13
2018-10-21T11:11:17.773Z,34.40
2018-10-21T11:13:46.585Z,32.33
2018-10-21T11:16:15.459Z,35.53
2018-10-21T11:18:44.331Z,33.37
2018-10-21T11:21:13.079Z,33.83
2018-10-21T11:23:41.873Z,33.20
2018-10-21T11:26:11.352Z,31.60
2018-10-21T11:28:40.180Z,35.30
2018-10-21T11:31:08.989Z,34.93
2018-10-21T11:33:37.957Z,34.27
2018-10-21T11:36:06.798Z,35.57
2018-10-21T11:38:35.553Z,33.77
2018-10-21T11:41:04.760Z,33.37
2018-10-21T11:43:33.510Z,30.07
2018-10-21T11:46:02.420Z,29.63
2018-10-21T11:48:31.298Z,29.07
2018-10-21T11:51:00.093Z,29.87
2018-10-21T11:53:28.841Z,29.07
2018-10-21T11:55:57.606Z,28.47
2018-10-21T11:58:26.370Z,29.17
2018-10-21T12:00:55.467Z,29.33
2018-10-21T12:03:24.401Z,28.37
2018-10-21T12:05:53.106Z,28.23
2018-10-21T12:08:21.849Z,28.60
2018-10-21T12:10:50.617Z,29.60
2018-10-21T12:13:19.391Z,29.67
2018-10-21T12:15:48.243Z,30.80
2018-10-21T12:18:17.094Z,28.53
2018-10-21T12:20:46.005Z,28.60
2018-10-21T12:23:14.796Z,26.33
2018-10-21T12:25:44.186Z,27.93
2018-10-21T12:28:13.181Z,27.53
2018-10-21T12:30:42.137Z,27.53
2018-10-21T12:33:10.923Z,28.07
2018-10-21T12:35:50.089Z,28.53
2018-10-21T12:38:18.859Z,27.60
2018-10-21T12:40:47.651Z,27.93
2018-10-21T12:43:16.496Z,29.23
2018-10-21T12:45:45.411Z,27.80
2018-10-21T12:48:14.157Z,29.73
2018-10-21T12:50:44.186Z,28.60
2018-10-21T12:53:13.070Z,28.93
2018-10-21T12:55:49.804Z,28.73
2018-10-21T12:58:19.264Z,29.60
2018-10-21T13:00:48.439Z,29.53
2018-10-21T13:03:17.450Z,28.80
2018-10-21T13:05:46.179Z,30.40
2018-10-21T13:08:15.030Z,31.87
2018-10-21T13:10:43.897Z,33.30
2018-10-21T13:13:12.971Z,33.20
2018-10-21T13:15:41.948Z,32.97
2018-10-21T13:18:10.708Z,32.57
2018-10-21T13:20:39.533Z,33.50
2018-10-21T13:23:08.306Z,33.70
2018-10-21T13:25:37.041Z,33.03
2018-10-21T13:28:06.269Z,32.97
2018-10-21T13:30:35.251Z,33.13
2018-10-21T13:33:04.127Z,32.83
2018-10-21T13:35:33.034Z,33.37
2018-10-21T13:38:01.943Z,32.23
2018-10-21T13:40:30.770Z,33.63
2018-10-21T13:42:59.737Z,33.47
2018-10-21T13:45:28.500Z,32.70
2018-10-21T13:47:57.334Z,35.67
2018-10-21T13:50:26.122Z,35.73
2018-10-21T13:52:54.945Z,34.23
2018-10-21T13:55:23.874Z,35.00
2018-10-21T13:57:53.301Z,35.27
2018-10-21T14:00:24.664Z,34.83
2018-10-21T14:02:53.823Z,34.63
2018-10-21T14:05:22.675Z,36.67
2018-10-21T14:07:51.445Z,32.73
2018-10-21T14:10:20.372Z,34.67
2018-10-21T14:12:49.114Z,34.57
2018-10-21T14:15:17.921Z,33.93
2018-10-21T14:17:46.920Z,33.83
2018-10-21T14:20:16.576Z,34.23
2018-10-21T14:22:45.801Z,33.47
2018-10-21T14:25:14.598Z,34.07
2018-10-21T14:27:43.398Z,35.27
2018-10-21T14:30:14.291Z,33.07
2018-10-21T14:32:43.162Z,33.90
2018-10-21T14:35:11.961Z,33.10
2018-10-21T14:37:40.769Z,33.07
2018-10-21T14:40:11.882Z,33.43
2018-10-21T14:42:40.975Z,32.50
2018-10-21T14:45:11.226Z,31.40
2018-10-21T14:47:40.652Z,31.30
2018-10-21T14:50:10.405Z,30.10
2018-10-21T14:52:39.189Z,30.13
2018-10-21T14:55:09.366Z,30.30
2018-10-21T14:57:38.589Z,31.33
2018-10-21T15:00:14.790Z,31.03
2018-10-21T15:02:43.952Z,33.27
2018-10-21T15:05:13.696Z,32.70
2018-10-21T15:07:45.281Z,33.17
2018-10-21T15:10:14.116Z,34.80
2018-10-21T15:12:43.043Z,35.33
2018-10-21T15:15:12.235Z,37.20
2018-10-21T15:17:41.074Z,36.67
2018-10-21T15:20:12.234Z,40.23
2018-10-21T15:22:41.155Z,39.73
2018-10-21T15:25:11.509Z,40.47
2018-10-21T15:27:40.688Z,36.50
2018-10-21T15:30:10.406Z,35.60
2018-10-21T15:32:39.815Z,36.20
2018-10-21T15:35:08.784Z,36.93
2018-10-21T15:37:37.540Z,36.13
2018-10-21T15:40:08.472Z,36.07
2018-10-21T15:42:37.391Z,36.07
2018-10-21T15:45:08.138Z,34.33
2018-10-21T15:47:36.934Z,36.17
2018-10-21T15:50:06.302Z,33.93
2018-10-21T15:52:35.279Z,34.30
2018-10-21T15:55:04.197Z,30.90
2018-10-21T15:57:32.982Z,31.63
2018-10-21T16:00:02.240Z,34.03
2018-10-21T16:02:31.151Z,32.40
2018-10-21T16:05:00.207Z,32.27
2018-10-21T16:07:28.968Z,31.33
2018-10-21T16:10:04.680Z,31.60
2018-10-21T16:12:33.638Z,32.20
2018-10-21T16:15:02.667Z,30.87
2018-10-21T16:17:31.413Z,34.17
2018-10-21T16:20:00.166Z,33.10
2018-10-21T16:22:29.233Z,30.83
2018-10-21T16:24:57.993Z,32.63
2018-10-21T16:27:26.716Z,31.27
2018-10-21T16:29:55.503Z,30.70
2018-10-21T16:32:24.325Z,29.87
2018-10-21T16:34:53.301Z,29.07
2018-10-21T16:37:22.149Z,31.40
2018-10-21T16:39:52.190Z,29.80
2018-10-21T16:42:21.054Z,30.67
2018-10-21T16:44:49.861Z,30.50
2018-10-21T16:47:18.628Z,29.10
2018-10-21T16:49:47.523Z,28.50
2018-10-21T16:52:16.315Z,31.10
2018-10-21T16:54:45.247Z,31.07
2018-10-21T16:57:14.218Z,30.13
2018-10-21T16:59:43.273Z,30.33
2018-10-21T17:02:13.861Z,31.47
2018-10-21T17:04:43.481Z,31.53
2018-10-21T17:07:12.317Z,30.87
2018-10-21T17:09:41.506Z,29.43
2018-10-21T17:12:10.254Z,30.80
2018-10-21T17:14:39.376Z,30.53
2018-10-21T17:17:08.607Z,31.10
2018-10-21T17:19:38.815Z,29.87
2018-10-21T17:22:08.857Z,31.17
2018-10-21T17:24:38.340Z,32.33
2018-10-21T17:27:08.788Z,30.57
2018-10-21T17:29:37.565Z,30.70
2018-10-21T17:32:06.365Z,32.60
2018-10-21T17:34:35.147Z,32.93
2018-10-21T17:37:04.791Z,32.07
2018-10-21T17:39:33.730Z,32.57
2018-10-21T17:42:02.656Z,32.10
2018-10-21T17:44:31.475Z,32.43
2018-10-21T17:47:00.265Z,33.00
2018-10-21T17:49:29.106Z,32.03
2018-10-21T17:51:58.029Z,31.37
2018-10-21T17:54:26.994Z,32.83
2018-10-21T17:56:57.624Z,28.67
2018-10-21T17:59:26.708Z,31.17
2018-10-21T18:01:56.129Z,30.37
2018-10-21T18:04:25.249Z,29.83
2018-10-21T18:06:54.041Z,31.20
2018-10-21T18:09:22.929Z,30.53
2018-10-21T18:11:51.722Z,31.17
2018-10-21T18:14:20.500Z,31.00
2018-10-21T18:16:49.369Z,30.43
2018-10-21T18:19:18.129Z,32.87
2018-10-21T18:21:46.903Z,31.40
2018-10-21T18:24:15.655Z,31.63
2018-10-21T18:26:44.821Z,31.73
2018-10-21T18:29:13.627Z,31.30
2018-10-21T18:31:42.458Z,32.13
2018-10-21T18:34:11.345Z,32.43
2018-10-21T18:36:40.211Z,32.87
2018-10-21T18:39:10.349Z,31.03
2018-10-21T18:41:39.184Z,32.60
2018-10-21T18:44:08.839Z,31.00
2018-10-21T18:46:37.659Z,30.87
2018-10-21T18:49:06.463Z,30.50
2018-10-21T18:51:35.486Z,33.07
2018-10-21T18:54:04.419Z,33.13
2018-10-21T18:56:33.191Z,31.90
2018-10-21T18:59:01.979Z,32.67
2018-10-21T19:01:30.735Z,32.73
2018-10-21T19:03:59.564Z,31.53
2018-10-21T19:06:28.503Z,32.47
2018-10-21T19:08:57.320Z,31.30
2018-10-21T19:11:32.658Z,31.87
2018-10-21T19:14:01.460Z,30.80
2018-10-21T19:16:30.326Z,32.00
2018-10-21T19:18:59.168Z,32.07
2018-10-21T19:21:28.101Z,32.33
2018-10-21T19:23:56.882Z,33.03
2018-10-21T19:26:26.056Z,31.10
2018-10-21T19:28:54.825Z,32.40
2018-10-21T19:31:23.578Z,31.73
2018-10-21T19:33:52.410Z,31.50
2018-10-21T19:36:21.394Z,33.53
2018-10-21T19:38:50.247Z,33.93
2018-10-21T19:41:18.987Z,33.13
2018-10-21T19:43:47.711Z,34.10
2018-10-21T19:46:16.626Z,34.67
2018-10-21T19:48:45.480Z,34.13
2018-10-21T19:51:14.295Z,32.63
2018-10-21T19:53:43.070Z,32.73
2018-10-21T19:56:11.847Z,31.93
2018-10-21T19:58:40.633Z,33.27
2018-10-21T20:01:09.601Z,33.40
2018-10-21T20:03:38.529Z,35.73
2018-10-21T20:06:07.476Z,38.33
2018-10-21T20:08:36.249Z,39.17
2018-10-21T20:11:05.326Z,38.00
2018-10-21T20:13:34.087Z,35.13
2018-10-21T20:16:02.873Z,33.30
2018-10-21T20:18:32.220Z,33.30
2018-10-21T20:21:01.002Z,33.43
2018-10-21T20:23:36.423Z,32.43
2018-10-21T20:26:05.465Z,32.37
2018-10-21T20:28:34.303Z,34.10
2018-10-21T20:31:03.175Z,34.50
2018-10-21T20:33:32.081Z,36.13
2018-10-21T20:36:00.848Z,37.63
2018-10-21T20:38:29.798Z,37.30
2018-10-21T20:40:58.676Z,38.60
2018-10-21T20:43:27.474Z,38.13
2018-10-21T20:45:56.214Z,37.03
2018-10-21T20:48:25.101Z,37.07
2018-10-21T20:50:53.826Z,37.20
2018-10-21T20:53:22.569Z,36.27
2018-10-21T20:55:51.345Z,35.37
2018-10-21T20:58:20.169Z,36.87
2018-10-21T21:00:49.051Z,40.13
2018-10-21T21:03:17.819Z,37.80
2018-10-21T21:05:46.616Z,36.03
2018-10-21T21:08:15.607Z,42.17
2018-10-21T21:10:44.421Z,41.37
2018-10-21T21:13:13.158Z,43.13
2018-10-21T21:15:41.941Z,44.97
2018-10-21T21:18:10.770Z,48.93
2018-10-21T21:20:39.737Z,48.63
2018-10-21T21:23:08.696Z,45.57
2018-10-21T21:25:37.522Z,43.97
2018-10-21T21:28:07.630Z,45.67
2018-10-21T21:30:36.615Z,43.30
2018-10-21T21:33:06.328Z,42.20
2018-10-21T21:35:35.116Z,42.87
2018-10-21T21:38:03.941Z,43.50
2018-10-21T21:40:32.651Z,43.40
2018-10-21T21:43:01.448Z,43.30
2018-10-21T21:45:30.177Z,44.33
2018-10-21T21:47:58.950Z,40.97
2018-10-21T21:50:27.893Z,40.80
2018-10-21T21:52:56.667Z,42.73
2018-10-21T21:55:25.375Z,41.97
2018-10-21T21:57:54.132Z,41.43
2018-10-21T22:00:22.957Z,39.87
2018-10-21T22:02:51.704Z,39.17
2018-10-21T22:05:20.477Z,41.90
2018-10-21T22:07:49.218Z,43.87
2018-10-21T22:10:18.047Z,41.87
2018-10-21T22:12:46.908Z,42.47
2018-10-21T22:15:15.661Z,41.53
2018-10-21T22:17:44.430Z,42.37
2018-10-21T22:20:14.071Z,39.87
2018-10-21T22:22:43.102Z,42.77
2018-10-21T22:25:11.959Z,42.00
2018-10-21T22:27:40.672Z,41.07
2018-10-21T22:30:11.232Z,39.90
2018-10-21T22:32:40.235Z,37.60
2018-10-21T22:35:09.910Z,37.77
2018-10-21T22:37:38.658Z,36.97
2018-10-21T22:40:07.545Z,36.30
2018-10-21T22:42:36.361Z,39.20
2018-10-21T22:45:06.123Z,37.40
2018-10-21T22:47:34.922Z,38.83
2018-10-21T22:50:03.782Z,38.63
2018-10-21T22:52:32.506Z,38.17
2018-10-21T22:55:01.246Z,36.77
2018-10-21T22:57:30.001Z,36.87
2018-10-21T22:59:58.717Z,36.63
2018-10-21T23:02:27.649Z,37.00
2018-10-21T23:04:56.460Z,39.17
2018-10-21T23:07:25.258Z,34.57
2018-10-21T23:09:54.092Z,38.00
2018-10-21T23:12:22.997Z,36.53
2018-10-21T23:14:51.743Z,36.93
2018-10-21T23:17:20.490Z,39.20
2018-10-21T23:19:50.386Z,38.83
2018-10-21T23:22:19.203Z,35.97
2018-10-21T23:24:48.058Z,38.13
2018-10-21T23:27:16.832Z,39.13
2018-10-21T23:29:45.631Z,38.50
2018-10-21T23:32:14.401Z,39.03
2018-10-21T23:34:43.171Z,38.60
2018-10-21T23:37:11.893Z,38.23
2018-10-21T23:39:40.639Z,36.80
2018-10-21T23:42:09.473Z,39.70
2018-10-21T23:44:38.379Z,39.17
2018-10-21T23:47:07.148Z,39.43
2018-10-21T23:49:35.864Z,37.77
2018-10-21T23:52:05.079Z,37.87
2018-10-21T23:54:33.974Z,37.30
2018-10-21T23:57:05.200Z,37.77
2018-10-21T23:59:35.063Z,36.43
